Time;durP1;ratioP1;P1;durP2;ratioP2;P2;SDS_P1;SDS_P2;PMS_P1;PMS_P2;Temp;Humidity;BMP_temperature;BMP_pressure;BME280_temperature;BME280_humidity;BME280_pressure;Samples;Min_cycle;Max_cycle;Signal;HPM_P1;HPM_P2
2022/11/30 00:01:58;;;;;;;;;;;;;;;;;;5056664;28;19921;-66
2022/11/30 00:04:24;;;;;;;;;;;14.50;99.00;;;;;;5108037;28;19924;-66
2022/11/30 00:06:49;;;;;;;;;;;14.60;99.10;;;;;;5076518;28;20412;-67
2022/11/30 00:09:15;;;;;;;;;;;14.50;99.10;;;;;;5076623;28;19990;-67
2022/11/30 00:11:41;;;;;;;;;;;14.30;99.00;;;;;;5076458;28;20018;-63
2022/11/30 00:14:07;;;;;;;;;;;;;;;;;;5072478;28;20361;-64
2022/11/30 00:16:32;;;;;;;;;;;14.40;99.00;;;;;;5069717;28;20016;-64
2022/11/30 00:18:58;;;;;;;;;;;14.50;99.00;;;;;;5074136;28;20003;-64
2022/11/30 00:21:24;;;;;;;;;;;14.50;99.10;;;;;;5076159;28;19925;-64
2022/11/30 00:23:49;;;;;;;;;;;14.50;99.00;;;;;;5074480;28;19936;-64
2022/11/30 00:26:16;;;;;;;;;;;14.70;99.00;;;;;;5072699;28;19924;-65
2022/11/30 00:28:42;;;;;;;;;;;14.90;99.10;;;;;;5091934;28;19924;-66
2022/11/30 00:31:11;;;;;;;;;;;14.50;98.90;;;;;;5072306;28;19924;-65
2022/11/30 00:33:37;;;;;;;;;;;14.30;98.70;;;;;;5068486;28;19924;-65
2022/11/30 00:36:04;;;;;;;;;;;14.50;98.90;;;;;;5074762;28;20011;-66
2022/11/30 00:38:30;;;;;;;;;;;14.70;99.00;;;;;;5074596;28;19928;-64
2022/11/30 00:40:56;;;;;;;;;;;14.50;99.00;;;;;;5073630;28;20003;-64
2022/11/30 00:43:21;;;;;;;;;;;14.70;99.10;;;;;;5076856;28;20022;-65
2022/11/30 00:45:47;;;;;;;;;;;;;;;;;;5076048;28;20037;-64
2022/11/30 00:48:13;;;;;;;;;;;14.40;98.90;;;;;;5076191;28;19932;-65
2022/11/30 00:50:39;;;;;;;;;;;14.40;98.90;;;;;;5064424;28;19936;-64
2022/11/30 00:53:04;;;;;;;;;;;14.30;98.90;;;;;;5074445;28;19947;-64
2022/11/30 00:55:32;;;;;;;;;;;14.40;98.90;;;;;;5071312;28;19931;-66
2022/11/30 00:57:58;;;;;;;;;;;14.60;99.00;;;;;;5075478;28;19921;-67
2022/11/30 01:00:23;;;;;;;;;;;14.60;98.90;;;;;;5103691;28;19978;-65
2022/11/30 01:02:52;;;;;;;;;;;14.40;98.90;;;;;;5058796;28;19928;-66
2022/11/30 01:05:18;;;;;;;;;;;14.60;98.90;;;;;;5072691;28;19985;-66
2022/11/30 01:07:44;;;;;;;;;;;14.60;98.80;;;;;;5073665;28;19924;-64
2022/11/30 01:10:09;;;;;;;;;;;14.20;98.80;;;;;;5073433;28;20015;-64
2022/11/30 01:12:35;;;;;;;;;;;14.40;98.80;;;;;;5072901;28;19924;-66
2022/11/30 01:15:01;;;;;;;;;;;14.70;98.90;;;;;;5074431;28;20290;-67
2022/11/30 01:17:26;;;;;;;;;;;14.60;98.90;;;;;;5076748;28;19932;-66
2022/11/30 01:19:52;;;;;;;;;;;14.40;98.60;;;;;;5073092;28;20031;-66
2022/11/30 01:22:18;;;;;;;;;;;14.60;98.90;;;;;;5074739;28;19921;-66
2022/11/30 01:24:43;;;;;;;;;;;14.40;98.90;;;;;;5055853;28;19925;-66
2022/11/30 01:27:09;;;;;;;;;;;14.60;98.90;;;;;;5075185;28;20046;-66
2022/11/30 01:29:34;;;;;;;;;;;14.60;98.90;;;;;;5072199;28;20451;-64
2022/11/30 01:32:00;;;;;;;;;;;14.60;98.90;;;;;;5074481;28;19924;-66
2022/11/30 01:34:26;;;;;;;;;;;14.70;98.90;;;;;;5055488;28;19925;-68
2022/11/30 01:36:51;;;;;;;;;;;14.70;98.90;;;;;;5075147;28;19931;-69
2022/11/30 01:39:17;;;;;;;;;;;14.80;98.90;;;;;;5072905;28;19925;-65
2022/11/30 01:41:42;;;;;;;;;;;14.20;98.70;;;;;;5060519;28;19987;-66
2022/11/30 01:44:14;;;;;;;;;;;14.60;98.70;;;;;;5061543;28;20298;-67
2022/11/30 01:46:40;;;;;;;;;;;14.80;98.80;;;;;;5073294;28;19935;-67
2022/11/30 01:49:08;;;;;;;;;;;14.50;98.70;;;;;;5072911;28;19924;-67
2022/11/30 01:51:44;;;;;;;;;;;14.70;98.60;;;;;;5074889;28;19924;-66
2022/11/30 01:54:11;;;;;;;;;;;14.70;98.80;;;;;;5073482;28;19962;-66
2022/11/30 01:56:44;;;;;;;;;;;14.30;98.70;;;;;;5105544;28;19924;-68
2022/11/30 01:59:09;;;;;;;;;;;14.60;98.70;;;;;;5087745;28;19932;-69
2022/11/30 02:01:35;;;;;;;;;;;14.60;98.70;;;;;;5067077;28;19932;-64
2022/11/30 02:04:02;;;;;;;;;;;14.50;98.70;;;;;;5067529;28;19921;-64
2022/11/30 02:06:27;;;;;;;;;;;14.40;98.70;;;;;;5071220;28;19929;-63
2022/11/30 02:08:53;;;;;;;;;;;14.60;98.80;;;;;;5056849;28;20344;-63
2022/11/30 02:11:19;;;;;;;;;;;14.60;98.80;;;;;;5072368;28;19932;-64
2022/11/30 02:13:58;;;;;;;;;;;14.40;98.70;;;;;;5073381;28;19931;-64
2022/11/30 02:16:24;;;;;;;;;;;14.40;98.60;;;;;;5072670;28;19970;-64
2022/11/30 02:18:50;;;;;;;;;;;14.60;98.60;;;;;;5070606;28;20393;-64
2022/11/30 02:21:21;;;;;;;;;;;14.30;98.60;;;;;;5073560;28;20305;-64
2022/11/30 02:23:56;;;;;;;;;;;14.40;98.60;;;;;;5073947;28;19931;-65
2022/11/30 02:26:31;;;;;;;;;;;14.60;98.50;;;;;;5100156;28;20468;-64
2022/11/30 02:29:00;;;;;;;;;;;14.50;98.60;;;;;;5071243;28;19970;-64
2022/11/30 02:31:27;;;;;;;;;;;14.40;98.60;;;;;;5068721;28;19951;-64
2022/11/30 02:33:53;;;;;;;;;;;14.40;98.60;;;;;;5043928;28;20015;-64
2022/11/30 02:36:18;;;;;;;;;;;14.40;98.60;;;;;;5073095;28;19967;-65
2022/11/30 02:38:44;;;;;;;;;;;14.60;98.60;;;;;;5071654;28;19924;-64
2022/11/30 02:41:09;;;;;;;;;;;14.20;98.60;;;;;;5090088;28;19924;-64
2022/11/30 02:43:35;;;;;;;;;;;14.50;98.60;;;;;;5073479;28;19927;-64
2022/11/30 02:46:13;;;;;;;;;;;14.40;98.60;;;;;;5072888;28;20018;-64
2022/11/30 02:49:05;;;;;;;;;;;14.30;98.50;;;;;;5054377;28;19925;-64
2022/11/30 02:51:31;;;;;;;;;;;14.70;98.70;;;;;;5065075;28;19925;-64
2022/11/30 02:53:56;;;;;;;;;;;14.70;98.60;;;;;;5067540;28;19994;-64
2022/11/30 02:56:22;;;;;;;;;;;14.40;98.50;;;;;;5071595;28;19968;-64
2022/11/30 02:58:48;;;;;;;;;;;;;;;;;;5088933;28;20396;-64
2022/11/30 03:01:13;;;;;;;;;;;14.60;98.50;;;;;;5069449;28;19925;-64
2022/11/30 03:03:39;;;;;;;;;;;14.50;98.50;;;;;;5086974;28;19936;-64
2022/11/30 03:06:05;;;;;;;;;;;14.70;98.60;;;;;;5062278;28;19927;-64
2022/11/30 03:08:30;;;;;;;;;;;14.60;98.60;;;;;;5060595;28;19931;-64
2022/11/30 03:10:56;;;;;;;;;;;14.70;98.60;;;;;;5074240;28;19920;-64
2022/11/30 03:13:22;;;;;;;;;;;;;;;;;;5069761;28;19925;-64
2022/11/30 03:15:48;;;;;;;;;;;14.50;98.50;;;;;;5071253;28;19925;-64
2022/11/30 03:18:13;;;;;;;;;;;14.70;98.60;;;;;;5072050;28;19924;-64
2022/11/30 03:20:40;;;;;;;;;;;;;;;;;;5071704;28;19978;-65
2022/11/30 03:23:05;;;;;;;;;;;14.70;98.60;;;;;;5062203;28;20386;-64
2022/11/30 03:25:31;;;;;;;;;;;14.50;98.50;;;;;;5064163;28;19975;-64
2022/11/30 03:27:58;;;;;;;;;;;14.70;98.50;;;;;;5072160;28;19925;-64
2022/11/30 03:30:24;;;;;;;;;;;14.80;98.50;;;;;;5104665;28;19925;-64
2022/11/30 03:32:50;;;;;;;;;;;14.70;98.50;;;;;;5072736;28;19931;-64
2022/11/30 03:35:16;;;;;;;;;;;14.50;98.40;;;;;;5069153;28;19978;-64
2022/11/30 03:37:41;;;;;;;;;;;14.40;98.40;;;;;;5072435;28;19928;-64
2022/11/30 03:40:07;;;;;;;;;;;14.60;98.40;;;;;;5071035;28;19969;-64
2022/11/30 03:42:33;;;;;;;;;;;;;;;;;;5072615;28;20057;-63
2022/11/30 03:44:59;;;;;;;;;;;;;;;;;;5068477;28;19929;-65
2022/11/30 03:47:25;;;;;;;;;;;14.50;98.40;;;;;;5054544;28;20378;-64
2022/11/30 03:49:50;;;;;;;;;;;14.80;98.50;;;;;;5073243;28;19978;-64
2022/11/30 03:52:16;;;;;;;;;;;14.60;98.40;;;;;;5072487;28;19929;-64
2022/11/30 03:54:42;;;;;;;;;;;14.40;98.30;;;;;;5073047;28;19926;-63
2022/11/30 03:57:07;;;;;;;;;;;14.70;98.30;;;;;;5069886;28;19925;-64
2022/11/30 03:59:33;;;;;;;;;;;14.60;98.10;;;;;;5067014;28;19943;-67
2022/11/30 04:01:58;;;;;;;;;;;14.40;98.20;;;;;;5073373;28;19929;-68
2022/11/30 04:04:24;;;;;;;;;;;14.70;98.30;;;;;;5072476;28;19931;-69
2022/11/30 04:06:50;;;;;;;;;;;;;;;;;;5071419;28;20023;-68
2022/11/30 04:09:16;;;;;;;;;;;14.40;98.20;;;;;;5072801;28;19932;-67
2022/11/30 04:11:41;;;;;;;;;;;14.50;98.20;;;;;;5072262;28;19924;-67
2022/11/30 04:14:07;;;;;;;;;;;14.50;98.20;;;;;;5063030;28;19925;-66
2022/11/30 04:16:32;;;;;;;;;;;14.50;98.20;;;;;;5067781;28;19924;-68
2022/11/30 04:18:58;;;;;;;;;;;14.60;98.20;;;;;;5071456;28;19924;-67
2022/11/30 04:21:24;;;;;;;;;;;14.70;98.20;;;;;;5086449;28;19978;-69
2022/11/30 04:23:49;;;;;;;;;;;14.40;98.10;;;;;;5072352;28;20294;-66
2022/11/30 04:26:15;;;;;;;;;;;14.60;98.20;;;;;;5070936;28;19927;-68
2022/11/30 04:28:41;;;;;;;;;;;14.60;98.10;;;;;;5071515;28;19931;-67
2022/11/30 04:31:06;;;;;;;;;;;14.60;98.20;;;;;;5070738;28;20018;-69
2022/11/30 04:33:32;;;;;;;;;;;14.70;98.10;;;;;;5070105;28;20868;-67
2022/11/30 04:35:58;;;;;;;;;;;;;;;;;;5071987;28;19977;-68
2022/11/30 04:38:24;;;;;;;;;;;14.60;98.10;;;;;;5071807;28;20346;-68
2022/11/30 04:40:49;;;;;;;;;;;14.40;98.00;;;;;;5071242;28;19931;-67
2022/11/30 04:43:15;;;;;;;;;;;;;;;;;;5074853;28;19986;-68
2022/11/30 04:45:41;;;;;;;;;;;;;;;;;;5076162;28;19924;-66
2022/11/30 04:48:07;;;;;;;;;;;14.40;97.90;;;;;;5066377;28;19931;-67
2022/11/30 04:50:33;;;;;;;;;;;14.50;97.90;;;;;;5057180;28;20332;-67
2022/11/30 04:52:58;;;;;;;;;;;14.50;98.00;;;;;;5075208;28;20423;-67
2022/11/30 04:55:24;;;;;;;;;;;14.60;98.00;;;;;;5074850;28;19924;-69
2022/11/30 04:57:49;;;;;;;;;;;14.60;98.00;;;;;;5077034;28;20022;-67
2022/11/30 05:00:15;;;;;;;;;;;14.60;98.00;;;;;;5075566;28;19924;-67
2022/11/30 05:02:41;;;;;;;;;;;14.60;98.00;;;;;;5075848;28;19972;-69
2022/11/30 05:05:07;;;;;;;;;;;14.80;98.10;;;;;;5064972;28;19925;-68
2022/11/30 05:07:32;;;;;;;;;;;14.60;98.00;;;;;;5055477;28;20393;-69
2022/11/30 05:09:58;;;;;;;;;;;14.50;98.00;;;;;;5055305;28;20397;-68
2022/11/30 05:12:24;;;;;;;;;;;14.40;97.90;;;;;;5063447;28;19925;-68
2022/11/30 05:14:49;;;;;;;;;;;14.20;97.90;;;;;;5076219;28;20011;-67
2022/11/30 05:17:15;;;;;;;;;;;14.60;98.00;;;;;;5075135;28;19925;-69
2022/11/30 05:19:41;;;;;;;;;;;14.40;98.00;;;;;;5075674;28;19931;-69
2022/11/30 05:22:06;;;;;;;;;;;14.80;98.10;;;;;;5066496;28;20003;-68
2022/11/30 05:24:32;;;;;;;;;;;14.60;98.00;;;;;;5076326;28;20290;-69
2022/11/30 05:26:58;;;;;;;;;;;14.70;98.00;;;;;;5075947;28;19951;-66
2022/11/30 05:29:23;;;;;;;;;;;14.50;97.90;;;;;;5074743;28;19925;-64
2022/11/30 05:31:49;;;;;;;;;;;14.40;97.90;;;;;;5075139;28;19935;-65
2022/11/30 05:34:15;;;;;;;;;;;14.50;97.90;;;;;;5075850;28;20011;-64
2022/11/30 05:36:40;;;;;;;;;;;14.40;97.90;;;;;;5076136;28;19925;-65
2022/11/30 05:39:06;;;;;;;;;;;14.60;97.80;;;;;;5064135;28;20383;-64
2022/11/30 05:41:31;;;;;;;;;;;14.70;97.90;;;;;;5068930;28;19950;-65
2022/11/30 05:43:57;;;;;;;;;;;14.60;97.80;;;;;;5075654;28;19924;-64
2022/11/30 05:46:23;;;;;;;;;;;14.80;97.90;;;;;;5074373;28;19931;-65
2022/11/30 05:48:48;;;;;;;;;;;14.40;97.80;;;;;;5075202;28;19935;-65
2022/11/30 05:51:14;;;;;;;;;;;14.50;97.90;;;;;;5074263;28;19924;-64
2022/11/30 05:53:40;;;;;;;;;;;14.30;97.80;;;;;;5074258;28;19924;-66
2022/11/30 05:56:06;;;;;;;;;;;;;;;;;;5064311;28;19925;-65
2022/11/30 05:58:32;;;;;;;;;;;;;;;;;;5053868;28;19983;-66
2022/11/30 06:00:58;;;;;;;;;;;14.30;97.70;;;;;;5075765;28;20306;-64
2022/11/30 06:03:24;;;;;;;;;;;14.70;97.80;;;;;;5074423;28;19925;-64
2022/11/30 06:05:50;;;;;;;;;;;14.80;97.90;;;;;;5075480;28;19931;-64
2022/11/30 06:08:16;;;;;;;;;;;14.40;97.70;;;;;;5075485;28;19931;-65
2022/11/30 06:10:41;;;;;;;;;;;14.60;97.70;;;;;;5073523;28;20433;-65
2022/11/30 06:13:08;;;;;;;;;;;14.70;97.80;;;;;;5062385;28;19975;-64
2022/11/30 06:15:37;;;;;;;;;;;14.50;97.80;;;;;;5037215;28;19986;-64
2022/11/30 06:18:03;;;;;;;;;;;14.60;97.80;;;;;;5053604;28;20401;-64
2022/11/30 06:20:29;;;;;;;;;;;14.70;97.80;;;;;;5037453;28;19974;-64
2022/11/30 06:22:56;;;;;;;;;;;14.40;97.70;;;;;;5073536;28;19925;-64
2022/11/30 06:25:22;;;;;;;;;;;;;;;;;;5073521;28;20431;-64
2022/11/30 06:27:48;;;;;;;;;;;14.40;97.60;;;;;;5072651;28;20303;-64
2022/11/30 06:30:13;;;;;;;;;;;14.90;97.70;;;;;;5063186;28;19925;-64
2022/11/30 06:32:39;;;;;;;;;;;14.50;97.70;;;;;;5073443;28;19929;-64
2022/11/30 06:35:05;;;;;;;;;;;14.40;97.60;;;;;;5057196;28;19971;-64
2022/11/30 06:37:32;;;;;;;;;;;14.70;97.70;;;;;;5107577;28;20416;-64
2022/11/30 06:39:58;;;;;;;;;;;14.70;97.70;;;;;;5090256;28;19925;-64
2022/11/30 06:42:24;;;;;;;;;;;14.50;97.70;;;;;;5073881;28;20259;-64
2022/11/30 06:44:49;;;;;;;;;;;14.40;97.70;;;;;;5074700;28;19924;-63
2022/11/30 06:47:15;;;;;;;;;;;14.60;97.70;;;;;;5063259;28;19925;-64
2022/11/30 06:49:40;;;;;;;;;;;14.50;97.70;;;;;;5054379;28;20012;-64
2022/11/30 06:52:06;;;;;;;;;;;14.60;97.70;;;;;;5068731;28;19924;-63
2022/11/30 06:54:32;;;;;;;;;;;14.70;97.70;;;;;;5074466;28;19925;-64
2022/11/30 06:56:57;;;;;;;;;;;14.70;97.70;;;;;;5072954;28;19925;-63
2022/11/30 06:59:23;;;;;;;;;;;14.60;97.70;;;;;;5072262;28;19931;-64
2022/11/30 07:01:48;;;;;;;;;;;14.60;97.60;;;;;;5073607;28;20006;-64
2022/11/30 07:04:14;;;;;;;;;;;14.50;97.70;;;;;;5062658;28;20416;-64
2022/11/30 07:06:40;;;;;;;;;;;14.30;97.60;;;;;;5053662;28;19967;-64
2022/11/30 07:09:05;;;;;;;;;;;14.50;97.70;;;;;;5054313;28;19925;-64
2022/11/30 07:11:32;;;;;;;;;;;14.60;97.60;;;;;;5056332;28;19925;-64
2022/11/30 07:13:57;;;;;;;;;;;14.60;97.70;;;;;;5074247;28;19924;-64
2022/11/30 07:16:23;;;;;;;;;;;14.70;97.70;;;;;;5073847;28;19931;-64
2022/11/30 07:18:49;;;;;;;;;;;14.70;97.60;;;;;;5071975;28;19928;-64
2022/11/30 07:21:14;;;;;;;;;;;14.40;97.60;;;;;;5072490;28;19924;-64
2022/11/30 07:26:24;;;;;;;;;;;14.60;97.60;;;;;;5106730;28;19931;-63
2022/11/30 07:28:53;;;;;;;;;;;14.40;97.60;;;;;;5073820;28;20441;-66
2022/11/30 07:31:28;;;;;;;;;;;14.80;97.60;;;;;;5072741;28;20329;-66
2022/11/30 07:33:54;;;;;;;;;;;14.60;97.30;;;;;;5073205;28;20297;-66
2022/11/30 07:36:20;;;;;;;;;;;14.60;97.20;;;;;;5072418;28;19925;-67
2022/11/30 07:38:46;;;;;;;;;;;14.90;97.10;;;;;;5054985;28;20434;-66
2022/11/30 07:41:12;;;;;;;;;;;15.00;97.20;;;;;;5089194;28;20015;-66
2022/11/30 07:43:37;;;;;;;;;;;14.80;97.20;;;;;;5072941;28;19972;-66
2022/11/30 07:46:03;;;;;;;;;;;14.70;97.10;;;;;;5072201;28;19925;-66
2022/11/30 07:48:28;;;;;;;;;;;15.00;97.20;;;;;;5072538;28;19928;-66
2022/11/30 07:50:57;;;;;;;;;;;14.80;97.10;;;;;;5072643;28;19946;-66
2022/11/30 07:53:23;;;;;;;;;;;14.80;97.10;;;;;;5071900;28;19924;-67
2022/11/30 07:55:49;;;;;;;;;;;14.80;97.00;;;;;;5057267;28;19929;-66
2022/11/30 07:58:14;;;;;;;;;;;15.00;97.00;;;;;;5087938;28;20339;-66
2022/11/30 08:00:40;;;;;;;;;;;15.00;97.10;;;;;;5072221;28;20441;-66
2022/11/30 08:03:06;;;;;;;;;;;14.90;97.00;;;;;;5072160;28;20007;-66
2022/11/30 08:05:31;;;;;;;;;;;14.90;97.00;;;;;;5072406;28;19928;-66
2022/11/30 08:07:57;;;;;;;;;;;15.10;97.10;;;;;;5072162;28;19931;-66
2022/11/30 08:10:23;;;;;;;;;;;15.00;97.00;;;;;;5072139;28;19965;-66
2022/11/30 08:12:48;;;;;;;;;;;14.90;97.00;;;;;;5054996;28;19977;-66
2022/11/30 08:15:14;;;;;;;;;;;15.30;97.10;;;;;;5054400;28;19931;-66
2022/11/30 08:17:40;;;;;;;;;;;15.10;97.10;;;;;;5073604;28;19925;-66
2022/11/30 08:20:06;;;;;;;;;;;15.10;97.00;;;;;;5092684;28;19925;-67
2022/11/30 08:22:32;;;;;;;;;;;14.80;97.00;;;;;;5059299;28;19924;-66
2022/11/30 08:24:58;;;;;;;;;;;14.80;97.00;;;;;;5076431;28;19986;-66
2022/11/30 08:27:24;;;;;;;;;;;15.00;97.10;;;;;;5108740;27;19982;-66
2022/11/30 08:29:49;;;;;;;;;;;15.40;97.10;;;;;;5066583;28;19924;-66
2022/11/30 08:32:15;;;;;;;;;;;15.10;97.10;;;;;;5075742;28;20349;-66
2022/11/30 08:34:41;;;;;;;;;;;15.10;97.00;;;;;;5108980;28;20301;-66
2022/11/30 08:37:06;;;;;;;;;;;15.30;96.90;;;;;;5075143;28;19927;-67
2022/11/30 08:39:33;;;;;;;;;;;15.00;97.00;;;;;;5076958;28;19977;-67
2022/11/30 08:41:59;;;;;;;;;;;15.30;97.00;;;;;;5076934;28;19928;-66
2022/11/30 08:44:25;;;;;;;;;;;15.20;97.00;;;;;;5075474;28;19925;-66
2022/11/30 08:46:50;;;;;;;;;;;15.00;97.00;;;;;;5058040;28;19931;-66
2022/11/30 08:49:16;;;;;;;;;;;14.90;97.00;;;;;;5075286;28;19920;-66
2022/11/30 08:51:41;;;;;;;;;;;15.20;97.10;;;;;;5075236;28;19925;-66
2022/11/30 08:54:07;;;;;;;;;;;14.90;96.90;;;;;;5074711;28;19924;-66
2022/11/30 08:56:33;;;;;;;;;;;;;;;;;;5074526;28;19939;-66
2022/11/30 08:58:59;;;;;;;;;;;14.80;96.90;;;;;;5092227;28;19929;-65
2022/11/30 09:01:24;;;;;;;;;;;15.10;96.90;;;;;;5092019;28;19924;-66
2022/11/30 09:03:51;;;;;;;;;;;15.00;96.90;;;;;;5092227;28;19950;-66
2022/11/30 09:06:17;;;;;;;;;;;15.30;96.90;;;;;;5092292;28;20335;-66
2022/11/30 09:08:44;;;;;;;;;;;14.90;96.80;;;;;;5074067;28;19969;-65
2022/11/30 09:11:10;;;;;;;;;;;;;;;;;;5109256;28;20261;-65
2022/11/30 09:13:36;;;;;;;;;;;15.00;96.70;;;;;;5074759;28;19924;-66
2022/11/30 09:16:02;;;;;;;;;;;15.10;96.60;;;;;;5057943;28;19932;-66
2022/11/30 09:18:28;;;;;;;;;;;15.10;96.60;;;;;;5074497;28;19924;-66
2022/11/30 09:20:57;;;;;;;;;;;15.00;96.60;;;;;;5074397;28;20382;-66
2022/11/30 09:23:22;;;;;;;;;;;15.00;96.60;;;;;;5055286;28;20386;-66
2022/11/30 09:25:53;;;;;;;;;;;15.20;96.70;;;;;;5074936;28;19924;-66
2022/11/30 09:28:19;;;;;;;;;;;15.00;96.50;;;;;;5086610;28;19932;-69
2022/11/30 09:30:44;;;;;;;;;;;15.10;96.50;;;;;;5074830;28;20019;-67
2022/11/30 09:33:10;;;;;;;;;;;15.20;96.60;;;;;;5072419;28;19979;-67
2022/11/30 09:35:36;;;;;;;;;;;;;;;;;;5074020;28;19947;-67
2022/11/30 09:38:03;;;;;;;;;;;;;;;;;;5056532;28;19921;-67
2022/11/30 09:40:29;;;;;;;;;;;15.00;96.50;;;;;;5054811;28;19932;-66
2022/11/30 09:43:03;;;;;;;;;;;14.90;96.50;;;;;;5037717;28;19932;-67
2022/11/30 09:45:29;;;;;;;;;;;15.20;96.60;;;;;;5068823;28;19929;-64
2022/11/30 09:48:11;;;;;;;;;;;14.70;96.40;;;;;;5039965;28;19932;-67
2022/11/30 09:50:38;;;;;;;;;;;15.20;96.40;;;;;;5068843;28;19932;-66
2022/11/30 09:53:04;;;;;;;;;;;15.00;96.40;;;;;;5072686;28;19931;-64
2022/11/30 09:55:31;;;;;;;;;;;14.80;96.40;;;;;;5073476;28;19954;-65
2022/11/30 09:57:57;;;;;;;;;;;15.00;96.40;;;;;;5074160;28;19924;-64
2022/11/30 10:00:23;;;;;;;;;;;14.90;96.40;;;;;;5074403;28;19936;-64
2022/11/30 10:02:49;;;;;;;;;;;15.00;96.40;;;;;;5055696;28;20286;-64
2022/11/30 10:05:16;;;;;;;;;;;15.00;96.40;;;;;;5071662;28;19932;-64
2022/11/30 10:07:42;;;;;;;;;;;;;;;;;;5066911;28;20441;-70
2022/11/30 10:10:26;;;;;;;;;;;14.90;96.30;;;;;;5071331;28;19982;-68
2022/11/30 10:12:52;;;;;;;;;;;15.00;96.40;;;;;;5071735;28;19928;-66
2022/11/30 10:15:17;;;;;;;;;;;15.00;96.40;;;;;;5057448;28;19924;-70
2022/11/30 10:17:49;;;;;;;;;;;15.00;96.50;;;;;;5081392;28;20003;-70
2022/11/30 10:20:15;;;;;;;;;;;15.00;96.50;;;;;;5093945;28;19924;-68
2022/11/30 10:23:01;;;;;;;;;;;15.10;96.60;;;;;;5128362;27;19924;-68
2022/11/30 10:25:35;;;;;;;;;;;14.70;96.60;;;;;;5077297;28;19924;-70
2022/11/30 10:28:04;;;;;;;;;;;15.20;96.60;;;;;;5073673;28;19924;-70
2022/11/30 10:30:31;;;;;;;;;;;15.00;96.70;;;;;;5087365;28;20341;-66
2022/11/30 10:32:57;;;;;;;;;;;15.00;96.70;;;;;;5069728;28;20301;-66
2022/11/30 10:35:32;;;;;;;;;;;15.10;96.70;;;;;;5077866;28;20019;-66
2022/11/30 10:37:58;;;;;;;;;;;;;;;;;;5054639;28;19986;-67
2022/11/30 10:40:44;;;;;;;;;;;15.00;96.80;;;;;;5077153;28;19924;-67
2022/11/30 10:43:17;;;;;;;;;;;15.00;96.90;;;;;;5094204;28;20377;-67
2022/11/30 10:45:47;;;;;;;;;;;15.20;97.00;;;;;;5060522;28;19979;-66
2022/11/30 10:48:19;;;;;;;;;;;15.00;96.90;;;;;;5074309;28;20003;-66
2022/11/30 10:50:45;;;;;;;;;;;15.00;96.90;;;;;;5074138;28;19924;-66
2022/11/30 10:53:10;;;;;;;;;;;14.80;96.80;;;;;;5056383;28;19925;-68
2022/11/30 10:55:40;;;;;;;;;;;15.10;96.80;;;;;;5056746;28;19925;-66
2022/11/30 10:58:12;;;;;;;;;;;15.00;96.90;;;;;;5074321;28;19925;-67
2022/11/30 11:00:37;;;;;;;;;;;15.20;97.00;;;;;;5054313;28;19929;-67
2022/11/30 11:03:03;;;;;;;;;;;15.20;96.90;;;;;;5053869;28;20012;-67
2022/11/30 11:05:29;;;;;;;;;;;15.40;97.00;;;;;;5053090;28;19925;-67
2022/11/30 11:08:03;;;;;;;;;;;14.90;96.80;;;;;;5036376;28;19925;-67
2022/11/30 11:10:29;;;;;;;;;;;;;;;;;;5053058;28;19929;-67
2022/11/30 11:12:55;;;;;;;;;;;14.90;96.90;;;;;;5052657;28;20015;-67
2022/11/30 11:15:21;;;;;;;;;;;15.20;96.70;;;;;;5062565;28;20397;-66
2022/11/30 11:17:47;;;;;;;;;;;15.20;96.50;;;;;;5085040;28;19931;-68
2022/11/30 11:20:26;;;;;;;;;;;15.30;96.60;;;;;;5054670;28;20294;-67
2022/11/30 11:22:52;;;;;;;;;;;15.30;96.00;;;;;;5068289;28;20419;-68
2022/11/30 11:25:21;;;;;;;;;;;14.90;95.50;;;;;;5073792;28;19964;-67
2022/11/30 11:27:51;;;;;;;;;;;15.20;95.20;;;;;;5076816;28;19924;-66
2022/11/30 11:30:17;;;;;;;;;;;15.10;95.30;;;;;;5093423;28;19924;-67
2022/11/30 11:33:06;;;;;;;;;;;15.00;95.30;;;;;;5094176;28;20349;-66
2022/11/30 11:35:51;;;;;;;;;;;15.00;95.30;;;;;;5076566;28;20311;-68
2022/11/30 11:38:29;;;;;;;;;;;15.10;95.30;;;;;;5054909;28;19935;-68
2022/11/30 11:40:59;;;;;;;;;;;15.20;95.50;;;;;;5070929;28;19930;-66
2022/11/30 11:43:25;;;;;;;;;;;15.30;95.50;;;;;;5073815;28;19925;-66
2022/11/30 11:45:52;;;;;;;;;;;15.30;95.60;;;;;;5073833;28;19925;-66
2022/11/30 11:48:28;;;;;;;;;;;15.10;95.60;;;;;;5072642;28;19927;-67
2022/11/30 11:50:58;;;;;;;;;;;14.90;95.50;;;;;;5068404;28;20020;-66
2022/11/30 11:53:24;;;;;;;;;;;;;;;;;;5058396;28;19931;-66
2022/11/30 11:55:50;;;;;;;;;;;15.00;95.60;;;;;;5073514;28;19924;-67
2022/11/30 11:58:17;;;;;;;;;;;15.30;95.80;;;;;;5076635;28;19925;-66
2022/11/30 12:00:43;;;;;;;;;;;15.30;95.70;;;;;;5075765;28;19931;-66
2022/11/30 12:03:22;;;;;;;;;;;15.30;95.80;;;;;;5077296;28;20290;-66
2022/11/30 12:05:49;;;;;;;;;;;15.00;95.80;;;;;;5073034;28;19925;-67
2022/11/30 12:08:16;;;;;;;;;;;15.10;95.80;;;;;;5093290;28;20348;-67
2022/11/30 12:10:48;;;;;;;;;;;15.30;95.90;;;;;;5078633;28;20016;-66
2022/11/30 12:13:15;;;;;;;;;;;15.20;95.30;;;;;;5077127;28;20393;-67
2022/11/30 12:15:59;;;;;;;;;;;15.40;94.90;;;;;;5073205;28;19925;-67
2022/11/30 12:18:31;;;;;;;;;;;15.20;94.70;;;;;;5057244;28;19932;-69
2022/11/30 12:20:58;;;;;;;;;;;15.20;94.40;;;;;;5065251;28;20418;-71
2022/11/30 12:23:43;;;;;;;;;;;15.00;94.20;;;;;;5077220;28;19947;-67
2022/11/30 12:26:11;;;;;;;;;;;15.00;94.10;;;;;;5074602;28;20279;-67
2022/11/30 12:28:37;;;;;;;;;;;15.00;94.00;;;;;;5056115;28;19978;-67
2022/11/30 12:31:16;;;;;;;;;;;15.00;93.80;;;;;;5075718;28;19929;-66
2022/11/30 12:33:51;;;;;;;;;;;14.80;93.80;;;;;;5076765;28;20016;-67
2022/11/30 12:36:28;;;;;;;;;;;14.70;93.60;;;;;;5076951;28;19925;-67
2022/11/30 12:38:58;;;;;;;;;;;14.60;93.50;;;;;;5077115;28;19978;-69
2022/11/30 12:41:42;;;;;;;;;;;14.90;93.70;;;;;;5075799;28;19924;-66
2022/11/30 12:44:16;;;;;;;;;;;15.00;94.00;;;;;;5066281;28;19929;-66
2022/11/30 12:46:45;;;;;;;;;;;14.70;94.00;;;;;;5056331;28;19999;-71
2022/11/30 12:49:18;;;;;;;;;;;14.70;94.10;;;;;;5076279;28;19924;-66
2022/11/30 12:51:49;;;;;;;;;;;14.80;94.20;;;;;;5057843;28;19925;-67
2022/11/30 12:54:15;;;;;;;;;;;;;;;;;;5109318;28;19925;-67
2022/11/30 12:56:43;;;;;;;;;;;15.10;94.10;;;;;;5054268;28;20343;-68
2022/11/30 12:59:12;;;;;;;;;;;14.80;94.30;;;;;;5059076;28;20401;-63
2022/11/30 13:01:37;;;;;;;;;;;14.90;94.30;;;;;;5059978;28;19929;-63
2022/11/30 13:04:15;;;;;;;;;;;14.90;94.50;;;;;;5074925;28;20336;-64
2022/11/30 13:07:09;;;;;;;;;;;14.70;94.60;;;;;;5076682;28;19925;-64
2022/11/30 13:09:45;;;;;;;;;;;14.90;94.60;;;;;;5060901;28;19925;-63
2022/11/30 13:12:11;;;;;;;;;;;14.90;94.80;;;;;;5075217;28;19967;-64
2022/11/30 13:14:37;;;;;;;;;;;14.90;94.90;;;;;;5058196;28;19979;-63
2022/11/30 13:17:03;;;;;;;;;;;14.60;94.80;;;;;;5072982;28;19964;-64
2022/11/30 13:19:37;;;;;;;;;;;14.70;94.90;;;;;;5056186;28;19971;-63
2022/11/30 13:22:05;;;;;;;;;;;14.80;94.90;;;;;;5055163;28;20342;-63
2022/11/30 13:24:34;;;;;;;;;;;14.90;94.90;;;;;;5054805;28;19979;-64
2022/11/30 13:27:01;;;;;;;;;;;15.00;95.00;;;;;;5038441;28;20036;-63
2022/11/30 13:29:26;;;;;;;;;;;14.90;95.00;;;;;;5055078;28;19928;-64
2022/11/30 13:32:11;;;;;;;;;;;14.70;94.90;;;;;;5056085;28;20375;-64
2022/11/30 13:34:37;;;;;;;;;;;;;;;;;;5057022;28;19978;-66
2022/11/30 13:37:06;;;;;;;;;;;14.70;95.00;;;;;;5055888;28;20290;-65
2022/11/30 13:39:42;;;;;;;;;;;14.60;95.00;;;;;;5056056;28;19971;-64
2022/11/30 13:42:14;;;;;;;;;;;14.70;95.10;;;;;;5054728;28;19929;-63
2022/11/30 13:44:40;;;;;;;;;;;14.60;95.10;;;;;;5055947;28;20297;-65
2022/11/30 13:47:18;;;;;;;;;;;14.60;95.10;;;;;;5055544;28;19999;-64
2022/11/30 13:49:44;;;;;;;;;;;14.70;95.20;;;;;;5054696;28;19948;-65
2022/11/30 13:52:13;;;;;;;;;;;14.60;95.10;;;;;;5068129;28;19925;-65
2022/11/30 13:54:38;;;;;;;;;;;14.90;95.20;;;;;;5075790;28;19932;-64
2022/11/30 13:57:17;;;;;;;;;;;14.60;95.20;;;;;;5108445;28;20019;-65
2022/11/30 13:59:46;;;;;;;;;;;14.70;95.30;;;;;;5074013;28;19924;-64
2022/11/30 14:02:31;;;;;;;;;;;14.70;95.40;;;;;;5107937;28;20370;-65
2022/11/30 14:05:18;;;;;;;;;;;14.50;95.30;;;;;;5075310;28;19925;-64
2022/11/30 14:08:08;;;;;;;;;;;14.80;95.40;;;;;;5075505;28;19968;-65
2022/11/30 14:10:34;;;;;;;;;;;;;;;;;;5026791;28;19986;-64
2022/11/30 14:13:04;;;;;;;;;;;14.60;95.30;;;;;;5055549;28;19925;-64
2022/11/30 14:15:39;;;;;;;;;;;14.50;95.20;;;;;;5054549;28;19947;-64
2022/11/30 14:18:05;;;;;;;;;;;15.00;95.30;;;;;;5054847;28;19979;-64
2022/11/30 14:20:41;;;;;;;;;;;14.60;95.30;;;;;;5055553;28;19968;-65
2022/11/30 14:23:18;;;;;;;;;;;14.60;95.30;;;;;;5054084;28;19947;-64
2022/11/30 14:25:45;;;;;;;;;;;14.80;95.30;;;;;;5062119;28;19924;-64
2022/11/30 14:28:14;;;;;;;;;;;14.90;95.30;;;;;;5074183;28;19929;-65
2022/11/30 14:30:40;;;;;;;;;;;14.90;95.30;;;;;;5075041;28;20342;-63
2022/11/30 14:33:10;;;;;;;;;;;14.60;95.30;;;;;;5073384;28;19974;-64